createdAt,value
2019-04-26T00:01:57.688Z,1.00
2019-04-26T00:05:01.373Z,0.78
2019-04-26T00:08:04.860Z,0.80
2019-04-26T00:11:27.333Z,0.95
2019-04-26T00:14:45.899Z,0.80
2019-04-26T00:17:55.356Z,0.85
2019-04-26T00:20:58.922Z,0.88
2019-04-26T00:24:03.348Z,0.80
2019-04-26T00:27:07.152Z,0.70
2019-04-26T00:30:12.090Z,1.02
2019-04-26T00:33:17.215Z,1.07
2019-04-26T00:36:20.883Z,0.85
2019-04-26T00:39:25.062Z,1.00
2019-04-26T00:42:28.733Z,1.00
2019-04-26T00:45:33.086Z,0.90
2019-04-26T00:48:36.574Z,0.95
2019-04-26T00:51:40.081Z,0.93
2019-04-26T00:54:43.990Z,0.80
2019-04-26T00:57:47.488Z,0.78
2019-04-26T01:00:52.104Z,0.90
2019-04-26T01:03:56.531Z,0.90
2019-04-26T01:07:00.205Z,0.70
2019-04-26T01:10:03.651Z,0.68
2019-04-26T01:13:07.269Z,0.70
2019-04-26T01:16:10.661Z,0.80
2019-04-26T01:19:14.279Z,0.85
2019-04-26T01:22:27.657Z,0.80
2019-04-26T01:25:45.157Z,0.78
2019-04-26T01:28:59.316Z,0.78
2019-04-26T01:32:11.246Z,0.95
2019-04-26T01:35:15.975Z,1.05
2019-04-26T01:38:20.806Z,1.10
2019-04-26T01:41:32.605Z,0.95
2019-04-26T01:44:50.637Z,0.80
2019-04-26T01:47:56.003Z,1.02
2019-04-26T01:50:59.508Z,0.80
2019-04-26T01:54:03.006Z,0.90
2019-04-26T01:57:06.413Z,0.88
2019-04-26T02:00:22.882Z,0.70
2019-04-26T02:03:28.479Z,0.90
2019-04-26T02:06:35.172Z,0.85
2019-04-26T02:09:38.142Z,0.90
2019-04-26T02:12:42.620Z,0.80
2019-04-26T02:15:46.169Z,1.10
2019-04-26T02:18:50.838Z,0.82
2019-04-26T02:22:00.145Z,0.80
2019-04-26T02:25:03.565Z,1.00
2019-04-26T02:28:07.024Z,0.72
2019-04-26T02:31:11.603Z,0.98
2019-04-26T02:34:15.776Z,1.12
2019-04-26T02:37:20.302Z,0.90
2019-04-26T02:40:23.787Z,1.07
2019-04-26T02:43:30.230Z,0.90
2019-04-26T02:46:49.047Z,0.80
2019-04-26T02:49:55.430Z,0.98
2019-04-26T02:53:22.519Z,0.93
2019-04-26T02:56:46.936Z,0.95
2019-04-26T02:59:50.550Z,1.00
2019-04-26T03:02:59.332Z,0.95
2019-04-26T03:06:02.771Z,0.82
2019-04-26T03:09:06.988Z,0.72
2019-04-26T03:12:12.323Z,0.90
2019-04-26T03:15:33.929Z,0.70
2019-04-26T03:19:01.322Z,0.90
2019-04-26T03:22:11.732Z,0.85
2019-04-26T03:25:53.688Z,0.70
2019-04-26T03:29:23.322Z,1.20
2019-04-26T03:32:51.514Z,1.10
2019-04-26T03:36:18.342Z,0.93
2019-04-26T03:39:32.911Z,1.02
2019-04-26T03:43:07.254Z,1.10
2019-04-26T03:46:23.166Z,1.00
2019-04-26T03:50:05.817Z,1.00
2019-04-26T03:53:42.573Z,1.00
2019-04-26T03:56:57.686Z,0.82
2019-04-26T04:00:25.331Z,0.95
2019-04-26T04:03:39.690Z,1.05
2019-04-26T04:06:58.144Z,0.82
2019-04-26T04:09:53.174Z,1.02
2019-04-26T04:13:18.185Z,1.05
2019-04-26T04:16:54.030Z,1.05
2019-04-26T04:20:28.447Z,1.00
2019-04-26T04:23:48.658Z,0.95
2019-04-26T04:27:30.853Z,1.10
2019-04-26T04:30:45.920Z,1.00
2019-04-26T04:34:01.138Z,0.90
2019-04-26T04:37:04.573Z,0.80
2019-04-26T04:40:36.682Z,1.07
2019-04-26T04:43:50.898Z,0.90
2019-04-26T04:47:23.512Z,0.90
2019-04-26T04:50:52.526Z,1.00
2019-04-26T04:54:02.592Z,1.02
2019-04-26T04:57:31.620Z,1.15
2019-04-26T05:01:22.072Z,0.88
2019-04-26T05:05:06.145Z,1.00
2019-04-26T05:08:54.900Z,1.02
2019-04-26T05:12:23.677Z,0.93
2019-04-26T05:15:53.278Z,1.00
2019-04-26T05:19:28.410Z,0.80
2019-04-26T05:22:58.072Z,0.95
2019-04-26T05:26:36.664Z,1.17
2019-04-26T05:29:52.087Z,0.90
2019-04-26T05:33:07.501Z,1.10
2019-04-26T05:36:31.393Z,1.10
2019-04-26T05:40:10.867Z,1.10
2019-04-26T05:43:27.432Z,0.98
2019-04-26T05:46:56.368Z,1.07
2019-04-26T05:50:37.309Z,1.10
2019-04-26T05:54:14.638Z,0.90
2019-04-26T05:57:41.107Z,1.07
2019-04-26T06:01:44.369Z,1.20
2019-04-26T06:05:22.515Z,1.12
2019-04-26T06:08:59.867Z,1.02
2019-04-26T06:12:13.148Z,1.10
2019-04-26T06:15:36.825Z,1.22
2019-04-26T06:18:55.329Z,0.93
2019-04-26T06:22:05.447Z,1.12
2019-04-26T06:25:29.171Z,0.80
2019-04-26T06:28:45.800Z,1.27
2019-04-26T06:31:57.965Z,1.35
2019-04-26T06:35:12.726Z,1.00
2019-04-26T06:38:57.843Z,1.32
2019-04-26T06:42:35.212Z,1.00
2019-04-26T06:46:11.409Z,1.15
2019-04-26T06:49:44.339Z,1.30
2019-04-26T06:52:58.189Z,1.10
2019-04-26T06:56:12.998Z,1.55
2019-04-26T06:59:41.182Z,1.52
2019-04-26T07:03:25.454Z,1.10
2019-04-26T07:06:35.290Z,1.17
2019-04-26T07:09:56.035Z,0.98
2019-04-26T07:13:35.906Z,1.25
2019-04-26T07:16:53.885Z,1.20
2019-04-26T07:20:15.555Z,1.10
2019-04-26T07:24:19.497Z,1.10
2019-04-26T07:27:40.808Z,1.20
2019-04-26T07:31:11.044Z,1.10
2019-04-26T07:34:39.344Z,1.30
2019-04-26T07:38:06.914Z,1.27
2019-04-26T07:41:33.503Z,1.20
2019-04-26T07:45:21.750Z,1.37
2019-04-26T07:49:25.197Z,1.35
2019-04-26T07:52:52.797Z,1.35
2019-04-26T07:56:16.218Z,1.45
2019-04-26T07:59:55.173Z,1.42
2019-04-26T08:03:24.367Z,1.17
2019-04-26T08:06:40.588Z,1.20
2019-04-26T08:09:59.976Z,1.42
2019-04-26T08:13:04.568Z,1.17
2019-04-26T08:16:26.097Z,1.25
2019-04-26T08:19:30.348Z,1.22
2019-04-26T08:22:35.561Z,1.35
2019-04-26T08:25:39.080Z,1.50
2019-04-26T08:28:42.627Z,1.10
2019-04-26T08:31:46.158Z,1.20
2019-04-26T08:34:55.871Z,1.17
2019-04-26T08:38:07.964Z,1.10
2019-04-26T08:41:09.885Z,1.50
2019-04-26T08:44:23.243Z,1.75
2019-04-26T08:47:40.451Z,1.42
2019-04-26T08:50:47.045Z,1.47
2019-04-26T08:53:50.735Z,1.40
2019-04-26T08:57:02.620Z,1.30
2019-04-26T09:00:11.052Z,1.40
2019-04-26T09:03:32.444Z,1.27
2019-04-26T09:06:41.581Z,1.87
2019-04-26T09:09:56.673Z,1.37
2019-04-26T09:12:51.308Z,1.90
2019-04-26T09:16:20.827Z,1.25
2019-04-26T09:19:26.096Z,1.40
2019-04-26T09:22:38.328Z,1.85
2019-04-26T09:25:58.556Z,1.70
2019-04-26T09:29:17.819Z,1.57
2019-04-26T09:32:29.435Z,1.47
2019-04-26T09:35:33.278Z,1.40
2019-04-26T09:38:36.801Z,1.35
2019-04-26T09:41:40.306Z,1.30
2019-04-26T09:44:59.485Z,1.35
2019-04-26T09:48:14.128Z,1.45
2019-04-26T09:51:17.758Z,1.62
2019-04-26T09:54:21.278Z,1.35
2019-04-26T09:57:24.741Z,1.37
2019-04-26T10:00:29.597Z,1.07
2019-04-26T10:03:34.389Z,1.20
2019-04-26T10:06:38.157Z,1.10
2019-04-26T10:09:43.737Z,1.10
2019-04-26T10:12:54.711Z,1.30
2019-04-26T10:16:37.723Z,1.00
2019-04-26T10:19:49.469Z,1.30
2019-04-26T10:22:53.001Z,1.00
2019-04-26T10:25:56.522Z,1.32
2019-04-26T10:29:01.053Z,1.50
2019-04-26T10:32:04.526Z,1.32
2019-04-26T10:35:09.066Z,1.35
2019-04-26T10:38:12.572Z,1.15
2019-04-26T10:41:16.647Z,1.20
2019-04-26T10:44:21.222Z,1.57
2019-04-26T10:47:25.727Z,1.95
2019-04-26T10:50:33.152Z,1.42
2019-04-26T10:53:42.069Z,1.80
2019-04-26T10:56:59.403Z,1.32
2019-04-26T11:00:05.784Z,1.35
2019-04-26T11:03:10.287Z,1.42
2019-04-26T11:06:13.710Z,1.10
2019-04-26T11:09:18.297Z,1.90
2019-04-26T11:12:21.882Z,1.50
2019-04-26T11:15:29.105Z,1.35
2019-04-26T11:18:31.459Z,1.45
2019-04-26T11:21:35.146Z,1.45
2019-04-26T11:24:38.669Z,1.42
2019-04-26T11:27:44.272Z,1.47
2019-04-26T11:30:48.039Z,1.67
2019-04-26T11:34:04.488Z,1.60
2019-04-26T11:36:57.921Z,1.80
2019-04-26T11:40:02.332Z,1.57
2019-04-26T11:43:05.910Z,1.75
2019-04-26T11:46:09.311Z,1.40
2019-04-26T11:49:12.718Z,1.70
2019-04-26T11:52:16.395Z,1.27
2019-04-26T11:55:20.902Z,1.47
2019-04-26T11:58:24.350Z,8.13
2019-04-26T12:01:29.545Z,8.73
2019-04-26T12:04:53.774Z,8.65
2019-04-26T12:08:02.335Z,8.30
2019-04-26T12:11:17.811Z,7.70
2019-04-26T12:14:20.203Z,6.87
2019-04-26T12:17:18.143Z,6.78
2019-04-26T12:20:22.453Z,6.65
2019-04-26T12:23:27.804Z,6.17
2019-04-26T12:26:42.336Z,6.42
2019-04-26T12:29:37.477Z,5.60
2019-04-26T12:32:41.985Z,5.75
2019-04-26T12:35:45.485Z,7.87
2019-04-26T12:38:49.200Z,9.20
2019-04-26T12:41:52.686Z,8.13
2019-04-26T12:45:12.295Z,8.45
2019-04-26T12:48:18.978Z,8.50
2019-04-26T12:51:22.453Z,7.83
2019-04-26T12:54:26.973Z,7.45
2019-04-26T12:57:31.557Z,7.00
2019-04-26T13:00:37.593Z,7.25
2019-04-26T13:03:43.029Z,6.58
2019-04-26T13:06:51.519Z,6.05
2019-04-26T13:10:12.792Z,6.55
2019-04-26T13:13:26.471Z,5.62
2019-04-26T13:16:40.548Z,6.22
2019-04-26T13:19:45.176Z,5.80
2019-04-26T13:22:50.213Z,4.80
2019-04-26T13:25:59.629Z,5.20
2019-04-26T13:29:01.203Z,5.67
2019-04-26T13:32:04.711Z,4.87
2019-04-26T13:35:11.346Z,4.97
2019-04-26T13:38:17.430Z,9.33
2019-04-26T13:41:20.953Z,11.30
2019-04-26T13:44:42.325Z,11.60
2019-04-26T13:48:03.865Z,10.82
2019-04-26T13:51:10.020Z,9.78
2019-04-26T13:54:16.480Z,10.10
2019-04-26T13:57:19.822Z,10.10
2019-04-26T14:00:27.151Z,9.70
2019-04-26T14:03:31.578Z,9.30
2019-04-26T14:06:35.860Z,8.30
2019-04-26T14:09:40.391Z,8.13
2019-04-26T14:12:46.249Z,8.05
2019-04-26T14:15:51.886Z,8.10
2019-04-26T14:18:55.556Z,6.85
2019-04-26T14:22:03.256Z,7.08
2019-04-26T14:25:11.283Z,6.87
2019-04-26T14:28:14.713Z,6.83
2019-04-26T14:31:19.210Z,6.47
2019-04-26T14:34:24.754Z,6.67
2019-04-26T14:37:28.305Z,6.45
2019-04-26T14:40:31.901Z,6.25
2019-04-26T14:43:41.132Z,6.60
2019-04-26T14:46:48.607Z,5.83
2019-04-26T14:49:45.982Z,5.95
2019-04-26T14:52:49.457Z,5.40
2019-04-26T14:55:54.634Z,6.25
2019-04-26T14:59:01.767Z,5.30
2019-04-26T15:02:34.609Z,5.47
2019-04-26T15:05:49.556Z,5.03
2019-04-26T15:08:53.225Z,5.22
2019-04-26T15:12:00.946Z,5.22
2019-04-26T15:15:04.205Z,5.17
2019-04-26T15:18:07.340Z,4.92
2019-04-26T15:21:10.763Z,4.72
2019-04-26T15:24:14.273Z,4.28
2019-04-26T15:27:17.693Z,4.17
2019-04-26T15:30:22.053Z,4.10
2019-04-26T15:33:26.588Z,4.35
2019-04-26T15:36:30.111Z,4.12
2019-04-26T15:39:58.289Z,4.03
2019-04-26T15:43:20.097Z,3.65
2019-04-26T15:46:49.835Z,3.90
2019-04-26T15:50:03.949Z,4.42
2019-04-26T15:53:10.555Z,3.45
2019-04-26T15:56:14.624Z,3.55
2019-04-26T15:59:18.334Z,3.77
2019-04-26T16:02:26.013Z,3.52
2019-04-26T16:05:29.650Z,3.55
2019-04-26T16:08:33.987Z,3.30
2019-04-26T16:11:38.095Z,2.98
2019-04-26T16:14:42.254Z,2.90
2019-04-26T16:17:45.833Z,3.70
2019-04-26T16:20:50.230Z,3.55
2019-04-26T16:23:55.255Z,3.20
2019-04-26T16:26:59.926Z,3.33
2019-04-26T16:30:32.566Z,3.17
2019-04-26T16:33:37.818Z,3.05
2019-04-26T16:36:42.195Z,2.92
2019-04-26T16:39:48.655Z,2.90
2019-04-26T16:42:56.566Z,2.62
2019-04-26T16:45:57.990Z,2.80
2019-04-26T16:49:04.342Z,2.40
2019-04-26T16:52:07.310Z,2.95
2019-04-26T16:55:18.202Z,2.90
2019-04-26T16:58:16.355Z,2.95
2019-04-26T17:01:19.905Z,2.75
2019-04-26T17:04:30.751Z,2.70
2019-04-26T17:07:29.471Z,2.65
2019-04-26T17:10:32.985Z,2.60
2019-04-26T17:13:48.242Z,2.40
2019-04-26T17:16:42.404Z,2.22
2019-04-26T17:19:47.438Z,2.30
2019-04-26T17:23:16.716Z,2.62
2019-04-26T17:26:36.393Z,2.60
2019-04-26T17:29:43.224Z,2.40
2019-04-26T17:32:47.569Z,1.85
2019-04-26T17:35:52.811Z,2.25
2019-04-26T17:38:56.286Z,2.22
2019-04-26T17:42:01.175Z,2.17
2019-04-26T17:45:07.022Z,2.40
2019-04-26T17:48:12.845Z,2.00
2019-04-26T17:51:18.939Z,2.05
2019-04-26T17:54:40.938Z,2.08
2019-04-26T17:57:36.056Z,2.00
2019-04-26T18:00:45.561Z,2.02
2019-04-26T18:03:37.674Z,2.10
2019-04-26T18:06:45.357Z,2.08
2019-04-26T18:09:46.956Z,1.92
2019-04-26T18:12:50.862Z,2.20
2019-04-26T18:15:54.544Z,1.82
2019-04-26T18:19:15.969Z,2.02
2019-04-26T18:22:36.171Z,2.25
2019-04-26T18:25:41.320Z,1.90
2019-04-26T18:28:51.761Z,1.70
2019-04-26T18:31:51.404Z,1.80
2019-04-26T18:34:55.005Z,2.15
2019-04-26T18:37:58.423Z,1.95
2019-04-26T18:41:03.618Z,1.90
2019-04-26T18:44:07.356Z,2.10
2019-04-26T18:47:27.549Z,2.20
2019-04-26T18:50:32.765Z,2.15
2019-04-26T18:54:00.511Z,1.90
2019-04-26T18:57:04.997Z,1.80
2019-04-26T19:00:14.306Z,1.77
2019-04-26T19:03:17.520Z,2.10
2019-04-26T19:06:31.011Z,2.00
2019-04-26T19:09:27.581Z,1.98
2019-04-26T19:12:32.633Z,1.92
2019-04-26T19:15:52.545Z,1.87
2019-04-26T19:18:59.922Z,2.30
2019-04-26T19:22:04.343Z,2.10
2019-04-26T19:25:18.972Z,2.00
2019-04-26T19:28:13.175Z,1.98
2019-04-26T19:31:19.312Z,1.60
2019-04-26T19:34:25.809Z,1.62
2019-04-26T19:37:30.433Z,1.92
2019-04-26T19:40:33.531Z,1.80
2019-04-26T19:43:39.207Z,2.00
2019-04-26T19:47:19.917Z,1.67
2019-04-26T19:50:34.475Z,1.75
2019-04-26T19:53:54.179Z,1.85
2019-04-26T19:57:11.128Z,1.75
2019-04-26T20:00:14.615Z,1.60
2019-04-26T20:03:18.030Z,1.77
2019-04-26T20:06:21.625Z,1.60
2019-04-26T20:09:26.570Z,1.57
2019-04-26T20:12:35.461Z,1.52
2019-04-26T20:15:35.392Z,1.60
2019-04-26T20:18:39.948Z,1.70
2019-04-26T20:21:45.414Z,1.30
2019-04-26T20:24:53.057Z,1.40
2019-04-26T20:27:59.804Z,1.50
2019-04-26T20:31:09.531Z,1.47
2019-04-26T20:34:16.678Z,1.60
2019-04-26T20:37:22.854Z,1.07
2019-04-26T20:40:25.523Z,1.27
2019-04-26T20:43:29.645Z,1.40
2019-04-26T20:46:37.614Z,1.52
2019-04-26T20:49:48.167Z,1.52
2019-04-26T20:52:45.529Z,1.47
2019-04-26T20:55:49.179Z,1.40
2019-04-26T20:58:52.736Z,1.05
2019-04-26T21:02:03.949Z,1.65
2019-04-26T21:05:02.109Z,1.30
2019-04-26T21:08:07.348Z,1.20
2019-04-26T21:11:11.508Z,1.30
2019-04-26T21:14:15.983Z,1.02
2019-04-26T21:17:23.650Z,1.00
2019-04-26T21:20:27.606Z,1.02
2019-04-26T21:23:35.083Z,1.22
2019-04-26T21:26:46.702Z,1.02
2019-04-26T21:30:07.842Z,1.15
2019-04-26T21:33:19.096Z,1.40
2019-04-26T21:36:41.199Z,0.90
2019-04-26T21:40:16.931Z,1.40
2019-04-26T21:43:20.008Z,1.00
2019-04-26T21:46:23.437Z,1.22
2019-04-26T21:49:26.858Z,1.15
2019-04-26T21:52:30.285Z,1.00
2019-04-26T21:55:38.379Z,1.10
2019-04-26T21:58:38.979Z,1.10
2019-04-26T22:01:43.524Z,1.40
2019-04-26T22:04:47.177Z,1.00
2019-04-26T22:07:50.722Z,0.88
2019-04-26T22:10:54.647Z,0.90
2019-04-26T22:14:03.213Z,0.80
2019-04-26T22:17:36.526Z,0.80
2019-04-26T22:20:44.809Z,0.93
2019-04-26T22:24:03.680Z,1.00
2019-04-26T22:27:07.470Z,0.98
2019-04-26T22:30:16.689Z,1.00
2019-04-26T22:33:20.494Z,0.95
2019-04-26T22:36:27.332Z,0.95
2019-04-26T22:39:32.550Z,0.80
2019-04-26T22:42:41.532Z,0.90
2019-04-26T22:45:49.054Z,0.90
2019-04-26T22:49:01.080Z,0.95
2019-04-26T22:51:58.192Z,1.07
2019-04-26T22:55:03.979Z,1.07
2019-04-26T22:58:07.399Z,0.80
2019-04-26T23:01:11.278Z,0.80
2019-04-26T23:04:17.882Z,0.90
2019-04-26T23:07:23.253Z,0.98
2019-04-26T23:10:31.135Z,0.80
2019-04-26T23:13:41.293Z,0.85
2019-04-26T23:17:04.180Z,0.90
2019-04-26T23:20:13.099Z,0.90
2019-04-26T23:23:16.773Z,0.90
2019-04-26T23:26:20.381Z,0.90
2019-04-26T23:29:24.022Z,0.90
2019-04-26T23:32:27.461Z,0.90
2019-04-26T23:35:30.965Z,1.10
2019-04-26T23:38:37.351Z,0.75
2019-04-26T23:41:41.604Z,0.70
2019-04-26T23:44:45.994Z,0.98
2019-04-26T23:47:49.481Z,0.75
2019-04-26T23:50:53.872Z,0.80
2019-04-26T23:53:57.891Z,0.78
2019-04-26T23:57:02.958Z,0.80
